Pagina principale
METAR-TAF:

METAR-TAF

Aeroporti :

Aeroporto di Sofia

Sofia, Bulgaria

latitudine: 42-39N, longitudine: 023-23E, altezza: 586 m

Osservazione

Il bollettino è stato emesso 14 minuti fa, alle 01:30 UTC
Vento 2 kt da direzioni variabili
Temperature 19°C
Umidità 88%
Pressione 1020 hPa
Visibilità 10 km o più

METAR: LBSF 210130Z AUTO VRB02KT 9999 NCD 19/17 Q1020 NOSIG

Ora: 04:44 (01:44 UTC)

Previsione

Il bollettino è stato emesso 2 ore e 44 minuti fa, alle 23:00 UTC
Previsione valida dal 21 alle 00 UTC al 21 alle 24 UTC
Vento 4 kt da direzioni variabili
Visibilità 10 km o più
nessuna nube inferiore a 1500 m e nessun cumulonembo
Evoluzione graduale
dal 21 alle 08 UTC al 21 alle 10 UTC
Vento 10 kt da est

TAF: LBSF 202300Z 2100/2124 VRB04KT CAVOK BECMG 2108/2110 09010KT

Osservazioni e previsioni meteorologiche di più di 4000 aeroporti (messaggi METAR e TAF).

Le stazioni disponibili sono rappresentate dai dischi gialli e rossi sulla carta.

Puntare il mouse per vedere il nome della stazione.

Clicca sopra per visualizzare le osservazioni e previsioni meteorologiche.

Per cambiare la mappa : fare clic sui pulsanti verdi con una croce nera per ingrandire, il pulsante verde con un trattino per diminuire, o sulla freccia verde per le mappe adiacenti.


METAR-TAF: